Time;durP1;ratioP1;P1;durP2;ratioP2;P2;SDS_P1;SDS_P2;PMS_P1;PMS_P2;Temp;Humidity;BMP_temperature;BMP_pressure;BME280_temperature;BME280_humidity;BME280_pressure;Samples;Min_cycle;Max_cycle;Signal;HPM_P1;HPM_P2
2022/12/08 00:02:22;;;;;;;10.55;4.65;;;;;;;2.58;93.57;100415.81;5089019;27;20434;-67
2022/12/08 00:10:25;;;;;;;10.10;5.85;;;;;;;2.65;92.65;100388.88;5020852;28;20754;-68
2022/12/08 00:12:52;;;;;;;11.82;4.70;;;;;;;2.90;91.56;100382.19;5026317;28;20497;-68
2022/12/08 00:15:19;;;;;;;12.75;5.15;;;;;;;2.97;91.20;100388.03;5026273;28;20550;-67
2022/12/08 00:17:45;;;;;;;11.65;4.93;;;;;;;2.96;90.72;100375.16;5026459;28;20095;-67
2022/12/08 00:20:12;;;;;;;13.35;5.53;;;;;;;2.59;93.97;100370.06;5031133;28;20064;-67
2022/12/08 00:22:38;;;;;;;10.10;4.93;;;;;;;2.42;94.82;100373.06;5028996;28;20045;-67
2022/12/08 00:25:06;;;;;;;12.68;4.72;;;;;;;2.72;93.75;100366.28;5027611;28;20444;-67
2022/12/08 00:27:32;;;;;;;16.48;5.63;;;;;;;2.39;94.93;100367.97;5026346;28;20049;-67
2022/12/08 00:30:00;;;;;;;16.40;5.60;;;;;;;2.32;96.61;100369.00;5034718;28;20053;-67
2022/12/08 00:32:26;;;;;;;14.48;6.60;;;;;;;2.58;94.77;100376.13;5034065;28;20056;-67
2022/12/08 00:34:53;;;;;;;12.68;5.68;;;;;;;2.70;95.62;100361.13;5046595;28;20047;-67
2022/12/08 00:37:19;;;;;;;13.18;6.78;;;;;;;2.85;93.66;100359.88;5063659;28;20518;-68
2022/12/08 00:39:46;;;;;;;13.30;5.80;;;;;;;3.18;91.82;100358.97;5034451;28;20048;-67
2022/12/08 00:42:12;;;;;;;11.00;5.85;;;;;;;3.22;90.95;100360.59;5026462;28;20052;-67
2022/12/08 00:44:39;;;;;;;14.52;6.40;;;;;;;3.16;91.50;100360.78;5030828;28;20056;-67
2022/12/08 00:47:06;;;;;;;13.25;6.60;;;;;;;2.64;94.21;100350.94;5017049;28;20044;-67
2022/12/08 00:49:33;;;;;;;12.63;5.85;;;;;;;2.74;93.47;100351.53;5034792;28;20068;-67
2022/12/08 00:51:59;;;;;;;15.45;6.60;;;;;;;2.35;95.86;100343.91;5056011;28;20111;-67
2022/12/08 00:54:26;;;;;;;13.05;6.72;;;;;;;2.36;96.66;100337.84;5044634;28;20059;-67
2022/12/08 00:56:52;;;;;;;16.42;6.95;;;;;;;2.56;95.55;100339.91;5072038;27;20055;-67
2022/12/08 00:59:19;;;;;;;16.45;6.30;;;;;;;2.26;96.65;100336.34;5094125;27;20056;-67
2022/12/08 01:01:46;;;;;;;17.63;7.60;;;;;;;2.34;96.88;100331.84;5030598;28;20539;-67
2022/12/08 01:04:16;;;;;;;12.75;6.32;;;;;;;2.45;96.88;100329.84;5046240;28;20045;-67
2022/12/08 01:06:44;;;;;;;14.07;5.90;;;;;;;2.37;97.30;100328.31;5031250;28;20044;-67
2022/12/08 01:09:12;;;;;;;13.88;6.82;;;;;;;2.41;96.54;100337.72;5016337;28;20064;-67
2022/12/08 01:11:38;;;;;;;16.92;7.38;;;;;;;2.31;97.26;100336.25;5026336;28;20059;-67
2022/12/08 01:14:05;;;;;;;14.82;6.50;;;;;;;2.38;97.43;100333.47;5028722;28;20127;-67
2022/12/08 01:16:33;;;;;;;16.60;5.78;;;;;;;2.23;98.38;100333.84;5023835;28;20052;-67
2022/12/08 01:19:01;;;;;;;15.40;6.22;;;;;;;2.36;97.81;100329.25;5057157;28;20048;-67
2022/12/08 01:21:29;;;;;;;12.70;6.70;;;;;;;2.37;97.90;100326.59;5030384;28;20045;-67
2022/12/08 01:23:56;;;;;;;10.40;5.25;;;;;;;2.49;96.58;100324.59;5028132;28;20048;-67
2022/12/08 01:26:23;;;;;;;11.15;6.15;;;;;;;2.65;95.86;100324.16;5046410;28;20139;-67
2022/12/08 01:28:49;;;;;;;14.00;6.30;;;;;;;2.90;94.06;100322.63;5047238;28;20055;-67
2022/12/08 01:31:19;;;;;;;14.57;6.15;;;;;;;2.90;94.21;100321.78;5029692;28;20136;-67
2022/12/08 01:33:46;;;;;;;13.00;6.45;;;;;;;2.97;94.48;100319.84;5069366;27;20645;-66
2022/12/08 01:36:19;;;;;;;16.15;5.93;;;;;;;3.31;92.75;100312.84;5047628;28;20056;-67
2022/12/08 01:38:47;;;;;;;11.80;5.88;;;;;;;3.78;90.26;100307.09;5049366;28;20055;-67
2022/12/08 01:41:15;;;;;;;11.88;6.00;;;;;;;3.93;88.87;100322.19;5048923;28;20049;-67
2022/12/08 01:43:57;;;;;;;12.05;5.90;;;;;;;3.57;90.70;100322.44;5039222;28;20128;-67
2022/12/08 01:46:25;;;;;;;13.85;6.22;;;;;;;3.99;89.10;100309.94;5048999;28;20048;-67
2022/12/08 01:48:55;;;;;;;11.05;6.43;;;;;;;3.45;90.30;100315.88;5043822;28;20056;-67
2022/12/08 01:51:22;;;;;;;12.63;6.03;;;;;;;3.26;91.87;100314.72;5049176;28;20052;-67
2022/12/08 01:53:50;;;;;;;10.82;5.72;;;;;;;3.63;90.94;100310.16;5048387;28;20044;-67
2022/12/08 01:56:22;;;;;;;14.43;6.53;;;;;;;3.41;92.52;100309.09;5038757;28;20044;-67
2022/12/08 01:58:52;;;;;;;12.38;5.80;;;;;;;3.51;92.14;100307.91;5048540;28;20504;-67
2022/12/08 02:01:19;;;;;;;11.65;6.50;;;;;;;2.93;94.11;100300.97;5048883;28;20044;-66
2022/12/08 02:03:49;;;;;;;11.27;6.70;;;;;;;3.07;94.91;100300.59;5047349;28;20051;-66
2022/12/08 02:06:17;;;;;;;12.68;6.25;;;;;;;2.86;96.23;100308.06;5053700;28;20044;-66
2022/12/08 02:08:45;;;;;;;14.63;6.85;;;;;;;2.93;95.92;100294.06;5048631;28;20045;-66
2022/12/08 02:11:13;;;;;;;12.05;6.30;;;;;;;2.58;97.63;100290.72;5038703;28;20056;-66
2022/12/08 02:13:41;;;;;;;13.43;6.00;;;;;;;2.82;96.90;100298.69;5049158;28;20068;-66
2022/12/08 02:16:20;;;;;;;19.10;6.00;;;;;;;3.30;94.72;100291.25;5049906;28;20508;-66
2022/12/08 02:19:00;;;;;;;11.88;5.80;;;;;;;3.62;92.57;100295.47;5049867;28;20604;-66
2022/12/08 02:21:33;;;;;;;14.02;7.00;;;;;;;3.33;93.38;100290.31;5040584;28;20079;-67
2022/12/08 02:24:13;;;;;;;13.77;6.20;;;;;;;2.93;95.29;100281.09;5050206;28;20059;-67
2022/12/08 02:27:10;;;;;;;9.35;6.18;;;;;;;2.76;96.72;100283.31;5047056;28;20062;-67
2022/12/08 02:30:05;;;;;;;12.40;5.72;;;;;;;2.79;96.33;100283.22;5049892;28;20056;-67
2022/12/08 02:32:55;;;;;;;10.45;5.00;;;;;;;2.97;96.28;100268.91;5049381;28;20557;-67
2022/12/08 02:35:27;;;;;;;11.50;5.47;;;;;;;2.84;96.00;100267.56;5041305;28;20130;-67
2022/12/08 02:38:00;;;;;;;11.93;6.18;;;;;;;3.07;96.01;100267.75;5061119;28;20540;-67
2022/12/08 02:40:32;;;;;;;15.68;6.53;;;;;;;3.21;94.49;100263.06;5057385;28;20408;-67
2022/12/08 02:43:04;;;;;;;7.47;4.57;;;;;;;3.67;92.17;100259.06;5049322;28;20052;-66
2022/12/08 02:45:36;;;;;;;13.20;5.47;;;;;;;3.89;90.21;100255.75;5049780;28;20044;-66
2022/12/08 02:48:02;;;;;;;12.45;4.40;;;;;;;4.00;89.23;100262.31;5049908;28;20060;-66
2022/12/08 02:50:30;;;;;;;12.65;4.95;;;;;;;3.82;89.97;100248.19;5049755;28;20052;-66
2022/12/08 02:52:56;;;;;;;8.80;5.18;;;;;;;3.66;90.07;100247.00;5039265;28;20399;-66
2022/12/08 02:55:27;;;;;;;12.10;5.05;;;;;;;3.36;92.28;100254.78;5049684;28;20049;-66
2022/12/08 02:58:23;;;;;;;13.13;5.57;;;;;;;2.88;94.39;100257.06;5049059;28;20484;-66
2022/12/08 03:01:05;;;;;;;8.88;4.80;;;;;;;3.04;94.18;100247.13;5048597;28;20048;-66
2022/12/08 03:03:39;;;;;;;13.55;6.05;;;;;;;3.14;93.60;100252.91;5047975;28;20044;-66
2022/12/08 03:06:15;;;;;;;11.90;5.20;;;;;;;3.50;91.64;100238.00;5054422;28;20055;-66
2022/12/08 03:08:50;;;;;;;11.35;5.05;;;;;;;3.42;91.68;100246.00;5038496;28;20055;-66
2022/12/08 03:11:21;;;;;;;9.52;5.28;;;;;;;3.44;91.53;100239.03;5049039;28;20047;-66
2022/12/08 03:13:52;;;;;;;10.48;5.70;;;;;;;3.95;88.98;100239.16;5049892;28;20045;-66
2022/12/08 03:16:23;;;;;;;12.18;4.85;;;;;;;3.91;89.13;100233.22;5039176;28;20063;-66
2022/12/08 03:18:55;;;;;;;12.20;6.75;;;;;;;4.00;88.07;100236.38;5047964;28;20045;-66
2022/12/08 03:21:23;;;;;;;15.23;8.03;;;;;;;3.82;88.77;100236.09;5040086;28;20040;-66
2022/12/08 03:23:54;;;;;;;13.07;6.65;;;;;;;4.00;88.36;100220.81;5048833;28;20663;-67
2022/12/08 03:26:28;;;;;;;15.13;6.50;;;;;;;4.01;88.20;100223.38;5049005;28;20044;-66
2022/12/08 03:28:55;;;;;;;9.65;4.70;;;;;;;4.06;88.15;100224.06;5038151;28;20036;-66
2022/12/08 03:31:24;;;;;;;13.20;6.07;;;;;;;4.00;88.32;100213.88;5048212;28;20041;-66
2022/12/08 03:33:54;;;;;;;10.95;6.25;;;;;;;3.87;89.13;100216.06;5048986;28;20036;-67
2022/12/08 03:36:20;;;;;;;9.80;5.78;;;;;;;3.99;89.15;100209.59;5048485;28;20044;-67
2022/12/08 03:38:52;;;;;;;10.95;5.53;;;;;;;3.99;89.00;100209.59;5048201;28;20048;-67
2022/12/08 03:41:19;;;;;;;10.77;6.68;;;;;;;3.90;88.90;100212.50;5038744;28;20068;-67
2022/12/08 03:43:47;;;;;;;11.20;5.95;;;;;;;4.21;88.16;100207.97;5049292;28;20780;-67
2022/12/08 03:46:14;;;;;;;11.35;6.00;;;;;;;4.33;87.32;100214.47;5049157;28;20048;-67
2022/12/08 03:48:41;;;;;;;10.32;5.88;;;;;;;4.00;88.39;100215.63;5038437;28;20055;-67
2022/12/08 03:51:07;;;;;;;13.52;7.50;;;;;;;3.73;89.50;100205.25;5048918;28;20044;-67
2022/12/08 03:53:34;;;;;;;12.63;6.45;;;;;;;3.83;89.42;100204.06;5048144;28;20049;-67
2022/12/08 03:56:04;;;;;;;13.43;7.28;;;;;;;3.77;89.06;100199.06;5038454;28;20052;-67
2022/12/08 03:58:30;;;;;;;10.43;6.05;;;;;;;4.20;87.61;100197.66;5048761;28;20048;-66
2022/12/08 04:00:57;;;;;;;9.23;5.97;;;;;;;4.23;86.58;100197.53;5047992;28;20052;-66
2022/12/08 04:03:23;;;;;;;10.57;6.32;;;;;;;4.05;87.72;100195.56;5038576;28;20075;-66
2022/12/08 04:05:50;;;;;;;13.38;6.53;;;;;;;3.86;88.37;100193.59;5049071;28;20048;-66
2022/12/08 04:08:16;;;;;;;13.63;6.53;;;;;;;4.26;86.54;100197.44;5062136;28;20055;-66
2022/12/08 04:10:42;;;;;;;13.48;6.68;;;;;;;4.20;86.07;100192.47;5039252;28;20423;-66
2022/12/08 04:13:10;;;;;;;11.75;6.43;;;;;;;4.18;86.10;100194.25;5048778;28;20633;-66
2022/12/08 04:15:37;;;;;;;10.63;6.05;;;;;;;4.29;85.31;100186.94;5048038;28;20041;-66
2022/12/08 04:18:03;;;;;;;11.13;6.80;;;;;;;4.24;84.96;100191.47;5039059;28;20048;-66
2022/12/08 04:20:30;;;;;;;11.35;6.10;;;;;;;4.24;84.78;100189.72;5048689;28;20416;-66
2022/12/08 04:22:56;;;;;;;14.98;7.00;;;;;;;4.24;84.63;100187.13;5048384;28;20540;-67
2022/12/08 04:25:22;;;;;;;12.27;6.72;;;;;;;4.22;85.08;100194.09;5038097;28;20052;-66
2022/12/08 04:27:49;;;;;;;12.07;6.63;;;;;;;4.12;85.11;100184.09;5048637;28;20051;-66
2022/12/08 04:30:17;;;;;;;10.45;6.22;;;;;;;3.96;86.02;100185.50;5047353;28;20048;-66
2022/12/08 04:32:43;;;;;;;14.70;6.63;;;;;;;3.84;86.68;100182.41;5053161;28;20097;-66
2022/12/08 04:35:10;;;;;;;16.33;7.18;;;;;;;3.46;88.90;100182.81;5048789;28;20408;-66
2022/12/08 04:37:36;;;;;;;12.55;6.60;;;;;;;3.22;89.88;100179.22;5053269;28;20056;-66
2022/12/08 04:40:03;;;;;;;14.25;6.47;;;;;;;3.05;90.78;100181.50;5048953;28;20410;-66
2022/12/08 04:42:30;;;;;;;14.00;7.55;;;;;;;3.28;90.21;100183.41;5048192;28;20412;-66
2022/12/08 04:44:57;;;;;;;13.15;7.18;;;;;;;3.52;89.60;100176.56;5047556;28;20044;-66
2022/12/08 04:47:25;;;;;;;12.98;6.90;;;;;;;3.18;90.28;100169.03;5041214;28;20519;-66
2022/12/08 04:49:51;;;;;;;13.63;6.72;;;;;;;3.32;89.60;100166.84;5052017;28;20505;-66
2022/12/08 04:52:18;;;;;;;15.05;7.15;;;;;;;3.72;88.02;100171.59;5051918;28;20575;-66
2022/12/08 04:54:44;;;;;;;12.38;7.15;;;;;;;3.86;87.01;100162.47;5045607;28;20045;-66
2022/12/08 04:57:11;;;;;;;12.68;7.35;;;;;;;3.48;87.69;100162.88;5052795;28;20045;-66
2022/12/08 04:59:37;;;;;;;11.95;6.95;;;;;;;3.80;86.92;100165.28;5050997;28;20048;-66
2022/12/08 05:02:04;;;;;;;11.07;6.90;;;;;;;3.84;86.97;100164.25;5052233;28;20069;-66
2022/12/08 05:04:32;;;;;;;15.27;8.38;;;;;;;3.67;86.96;100166.56;5047694;28;20123;-67
2022/12/08 05:06:58;;;;;;;13.77;7.82;;;;;;;3.92;85.80;100166.59;5051082;28;20061;-67
2022/12/08 05:09:25;;;;;;;18.58;8.00;;;;;;;3.64;86.84;100171.84;5051815;28;20044;-67
2022/12/08 05:11:51;;;;;;;14.90;7.40;;;;;;;3.62;87.16;100163.25;5047832;28;21992;-66
2022/12/08 05:14:18;;;;;;;14.60;8.02;;;;;;;3.77;86.65;100165.38;5070341;28;20055;-66
2022/12/08 05:16:45;;;;;;;11.48;6.93;;;;;;;3.60;86.75;100159.88;5069636;28;20526;-66
2022/12/08 05:19:12;;;;;;;11.07;6.60;;;;;;;3.42;87.75;100161.34;5061429;28;20048;-66
2022/12/08 05:21:40;;;;;;;12.02;7.47;;;;;;;3.44;87.61;100153.50;5062996;28;20664;-66
2022/12/08 05:24:07;;;;;;;13.93;6.55;;;;;;;3.42;87.87;100171.69;5085162;28;20134;-67
2022/12/08 05:26:34;;;;;;;11.52;6.85;;;;;;;3.68;86.36;100168.28;5045453;28;21941;-68
2022/12/08 05:29:00;;;;;;;13.43;7.00;;;;;;;3.74;86.10;100165.47;5054878;28;20051;-68
2022/12/08 05:31:26;;;;;;;11.38;7.00;;;;;;;3.57;86.75;100157.41;5056093;28;20044;-68
2022/12/08 05:33:54;;;;;;;18.70;8.05;;;;;;;3.28;87.87;100154.88;5041293;28;20052;-69
2022/12/08 05:36:20;;;;;;;11.25;6.55;;;;;;;3.35;88.09;100143.44;5049932;28;20047;-68
2022/12/08 05:38:48;;;;;;;16.88;7.45;;;;;;;3.08;88.58;100150.31;5066675;28;20042;-68
2022/12/08 05:41:17;;;;;;;12.68;7.47;;;;;;;3.27;88.89;100146.28;5056933;28;20048;-68
2022/12/08 05:43:44;;;;;;;10.70;6.70;;;;;;;3.74;86.43;100151.66;5050172;28;20055;-68
2022/12/08 05:46:11;;;;;;;21.92;8.18;;;;;;;3.76;85.30;100149.88;5051125;28;20178;-68
2022/12/08 05:48:38;;;;;;;12.57;7.60;;;;;;;3.68;85.45;100144.09;5047695;28;20063;-69
2022/12/08 05:51:05;;;;;;;13.30;7.40;;;;;;;3.40;87.09;100154.47;5049657;28;20048;-68
2022/12/08 05:53:31;;;;;;;15.50;6.80;;;;;;;3.87;84.70;100148.63;5050982;28;20045;-68
2022/12/08 05:55:59;;;;;;;18.10;7.22;;;;;;;3.86;84.21;100144.31;5045868;28;20044;-68
2022/12/08 05:58:26;;;;;;;15.60;7.75;;;;;;;3.78;83.77;100138.53;5050579;28;20488;-69
2022/12/08 06:00:52;;;;;;;12.50;7.18;;;;;;;3.70;84.07;100129.31;5048851;28;20048;-67
2022/12/08 06:03:19;;;;;;;12.23;7.15;;;;;;;3.31;85.86;100132.31;5043661;28;20040;-67
2022/12/08 06:05:46;;;;;;;13.32;7.65;;;;;;;3.29;85.97;100134.09;5050350;28;20113;-67
2022/12/08 06:08:14;;;;;;;16.90;7.63;;;;;;;3.03;87.66;100126.28;5079051;28;20055;-68
2022/12/08 06:10:41;;;;;;;19.42;7.13;;;;;;;2.50;90.62;100132.22;5038241;28;20530;-68
2022/12/08 06:13:09;;;;;;;15.77;7.93;;;;;;;2.62;91.41;100129.28;5050958;27;20055;-68
2022/12/08 06:15:36;;;;;;;16.08;8.32;;;;;;;2.82;89.91;100134.72;5046622;27;20052;-68
2022/12/08 06:18:03;;;;;;;17.77;8.70;;;;;;;2.68;89.96;100129.94;5050747;27;20056;-68
2022/12/08 06:20:30;;;;;;;19.73;9.20;;;;;;;2.20;92.31;100132.19;5049431;28;20045;-68
2022/12/08 06:22:56;;;;;;;20.42;8.48;;;;;;;2.58;90.52;100127.69;5053620;27;20051;-68
2022/12/08 06:25:24;;;;;;;18.45;8.23;;;;;;;2.32;91.70;100131.00;5053337;27;20059;-68
2022/12/08 06:27:50;;;;;;;18.15;8.40;;;;;;;2.54;90.13;100137.28;5049701;27;20484;-68
2022/12/08 06:30:18;;;;;;;15.65;8.38;;;;;;;2.53;89.97;100129.53;5058009;28;20492;-68
2022/12/08 06:32:45;;;;;;;16.33;8.88;;;;;;;2.58;89.73;100131.13;5062649;28;20580;-68
2022/12/08 06:35:11;;;;;;;17.60;8.45;;;;;;;2.60;89.54;100126.72;5049492;27;20067;-68
2022/12/08 06:37:38;;;;;;;15.32;8.52;;;;;;;2.39;91.24;100129.94;5051083;27;20044;-68
2022/12/08 06:40:05;;;;;;;17.40;7.93;;;;;;;2.59;89.37;100131.97;5041200;28;20056;-68
2022/12/08 06:42:43;;;;;;;17.45;8.48;;;;;;;2.74;89.06;100128.91;5061906;28;20048;-68
2022/12/08 06:45:11;;;;;;;17.52;8.77;;;;;;;2.74;88.48;100131.50;5040662;28;20123;-68
2022/12/08 06:47:39;;;;;;;18.02;8.00;;;;;;;2.50;88.78;100132.22;5049033;28;20041;-68
2022/12/08 06:50:07;;;;;;;20.10;8.23;;;;;;;2.34;90.63;100134.38;5049053;28;20048;-68
2022/12/08 06:52:34;;;;;;;15.25;7.97;;;;;;;2.64;88.42;100132.66;5040529;28;20036;-68
2022/12/08 06:55:00;;;;;;;16.70;7.97;;;;;;;2.63;88.33;100136.13;5063295;28;20059;-68
2022/12/08 06:57:26;;;;;;;20.60;8.35;;;;;;;2.82;87.38;100138.16;5049526;28;20056;-68
2022/12/08 06:59:53;;;;;;;17.50;7.95;;;;;;;3.21;85.45;100138.69;5043301;28;20055;-68
2022/12/08 07:02:19;;;;;;;13.50;7.75;;;;;;;3.06;85.35;100131.41;5077711;28;20728;-68
2022/12/08 07:04:47;;;;;;;17.75;7.80;;;;;;;3.25;84.79;100137.69;5053144;28;20051;-68
2022/12/08 07:07:14;;;;;;;14.48;8.13;;;;;;;2.83;84.94;100139.00;5071279;27;20050;-68
2022/12/08 07:09:40;;;;;;;14.48;7.45;;;;;;;2.34;88.30;100153.34;5048385;28;20064;-69
2022/12/08 07:12:07;;;;;;;13.30;7.40;;;;;;;2.55;88.52;100151.06;5049022;28;20056;-68
2022/12/08 07:14:33;;;;;;;21.52;8.18;;;;;;;2.28;89.76;100150.94;5038939;28;20052;-68
2022/12/08 07:17:00;;;;;;;18.67;8.18;;;;;;;2.43;88.52;100149.66;5051593;28;20052;-68
2022/12/08 07:19:27;;;;;;;15.48;7.70;;;;;;;2.36;89.84;100149.00;5052039;28;20706;-68
2022/12/08 07:21:55;;;;;;;20.98;9.48;;;;;;;2.55;89.65;100146.69;5038108;28;20123;-68
2022/12/08 07:24:21;;;;;;;22.20;9.32;;;;;;;2.44;90.04;100151.34;5057473;28;20044;-68
2022/12/08 07:26:48;;;;;;;15.48;7.78;;;;;;;2.65;89.22;100142.13;5040169;28;20071;-68
2022/12/08 07:29:14;;;;;;;19.48;7.68;;;;;;;2.57;89.20;100152.69;5044495;28;20468;-68
2022/12/08 07:31:41;;;;;;;20.58;8.63;;;;;;;2.33;90.29;100149.06;5050169;28;20041;-68
2022/12/08 07:34:07;;;;;;;17.48;8.13;;;;;;;2.58;89.65;100138.88;5048120;28;20496;-68
2022/12/08 07:36:34;;;;;;;15.95;8.23;;;;;;;2.63;89.88;100144.75;5037996;28;20067;-68
2022/12/08 07:39:01;;;;;;;20.08;7.63;;;;;;;2.69;89.08;100146.34;5041412;28;20416;-69
2022/12/08 07:41:28;;;;;;;14.80;7.82;;;;;;;2.36;91.18;100148.13;5047948;28;20441;-69
2022/12/08 07:43:56;;;;;;;19.27;7.70;;;;;;;2.79;89.20;100143.44;5038596;28;20074;-69
2022/12/08 07:46:24;;;;;;;19.50;7.95;;;;;;;2.62;89.96;100145.66;5055931;28;20502;-68
2022/12/08 07:48:52;;;;;;;20.17;9.05;;;;;;;2.85;89.18;100135.47;5085327;28;20052;-68
2022/12/08 07:51:18;;;;;;;17.15;8.20;;;;;;;2.68;90.28;100140.31;5056755;28;20053;-68
2022/12/08 07:53:47;;;;;;;14.68;7.53;;;;;;;2.81;89.74;100140.78;5056195;28;20048;-68
2022/12/08 07:56:15;;;;;;;13.98;7.18;;;;;;;2.90;88.67;100143.09;5058317;28;20484;-68
2022/12/08 07:58:44;;;;;;;18.98;8.75;;;;;;;2.66;89.97;100144.66;5037332;28;20047;-68
2022/12/08 08:01:20;;;;;;;21.75;8.52;;;;;;;3.00;88.41;100135.88;5047114;28;20119;-68
2022/12/08 08:03:46;;;;;;;16.67;7.00;;;;;;;3.01;87.79;100140.19;5059985;27;20047;-69
2022/12/08 08:06:13;;;;;;;22.70;8.63;;;;;;;3.08;88.70;100144.28;5085351;28;20117;-68
2022/12/08 08:08:39;;;;;;;19.35;8.70;;;;;;;3.21;87.85;100140.44;5056975;28;20036;-68
2022/12/08 08:11:06;;;;;;;18.67;8.38;;;;;;;3.44;86.29;100143.13;5048241;28;20056;-68
2022/12/08 08:13:34;;;;;;;19.13;9.00;;;;;;;3.18;87.19;100135.34;5039986;28;20045;-68
2022/12/08 08:16:03;;;;;;;15.82;7.43;;;;;;;3.19;87.68;100137.88;5047158;28;20052;-68
2022/12/08 08:18:30;;;;;;;14.30;7.65;;;;;;;2.78;89.42;100144.31;5037538;28;20048;-68
2022/12/08 08:20:56;;;;;;;20.95;9.18;;;;;;;2.95;88.71;100143.81;5048143;28;20582;-68
2022/12/08 08:23:23;;;;;;;17.00;8.63;;;;;;;2.89;89.60;100139.66;5048556;28;20419;-68
2022/12/08 08:25:49;;;;;;;18.77;8.48;;;;;;;2.92;89.65;100130.94;5048628;28;20037;-68
2022/12/08 08:28:15;;;;;;;17.80;8.80;;;;;;;3.16;88.66;100137.13;5052237;28;20139;-68
2022/12/08 08:30:45;;;;;;;15.77;7.90;;;;;;;3.28;87.80;100142.78;5051467;28;20052;-68
2022/12/08 08:33:11;;;;;;;18.67;8.07;;;;;;;3.74;86.03;100142.13;5042971;28;20052;-68
2022/12/08 08:35:38;;;;;;;16.50;7.43;;;;;;;3.37;87.33;100144.22;5051817;28;20058;-68
2022/12/08 08:38:05;;;;;;;17.52;8.55;;;;;;;3.47;87.13;100145.66;5051200;28;20404;-68
2022/12/08 08:40:31;;;;;;;18.75;9.07;;;;;;;3.46;86.68;100143.94;5047063;28;20044;-68
2022/12/08 08:43:00;;;;;;;15.88;8.32;;;;;;;3.09;88.60;100144.25;5051032;28;20561;-68
2022/12/08 08:45:26;;;;;;;18.48;7.90;;;;;;;2.74;90.61;100150.47;5051168;28;20040;-68
2022/12/08 08:47:54;;;;;;;17.10;8.05;;;;;;;2.96;90.13;100144.69;5045266;28;20060;-68
2022/12/08 08:50:21;;;;;;;16.58;8.00;;;;;;;2.73;91.85;100153.13;5051425;28;20415;-68
2022/12/08 08:52:47;;;;;;;19.23;7.68;;;;;;;3.34;89.81;100144.31;5050793;28;20693;-68
2022/12/08 08:55:14;;;;;;;17.27;7.93;;;;;;;3.55;87.85;100145.41;5045300;28;20140;-68
2022/12/08 08:57:40;;;;;;;16.10;7.63;;;;;;;3.73;87.64;100143.03;5051837;28;20037;-68
2022/12/08 09:00:08;;;;;;;19.10;8.52;;;;;;;3.50;87.88;100148.13;5050205;28;20036;-67
2022/12/08 09:02:35;;;;;;;13.55;6.28;;;;;;;3.46;88.53;100143.94;5044833;28;20097;-67
2022/12/08 09:05:03;;;;;;;14.18;7.30;;;;;;;3.58;88.21;100150.47;5054128;28;20059;-67
2022/12/08 09:07:31;;;;;;;18.02;7.70;;;;;;;4.11;86.55;100140.88;5062570;28;20048;-67
2022/12/08 09:09:57;;;;;;;14.95;7.03;;;;;;;3.84;86.99;100146.09;5040174;28;20535;-67
2022/12/08 09:12:24;;;;;;;20.88;7.72;;;;;;;4.28;85.76;100141.16;5051683;28;20412;-67
2022/12/08 09:14:50;;;;;;;13.23;7.07;;;;;;;4.31;85.69;100146.22;5051029;28;20049;-67
2022/12/08 09:17:16;;;;;;;14.43;7.60;;;;;;;3.93;87.40;100143.22;5047874;28;20044;-67
2022/12/08 09:19:43;;;;;;;14.20;6.80;;;;;;;3.81;87.68;100141.03;5056262;28;20064;-67
2022/12/08 09:22:11;;;;;;;18.30;8.00;;;;;;;3.79;88.73;100142.00;5077171;28;20579;-67
2022/12/08 09:24:37;;;;;;;17.45;7.57;;;;;;;3.74;89.23;100141.28;5055744;28;20059;-67
2022/12/08 09:27:04;;;;;;;16.23;7.38;;;;;;;3.63;89.29;100154.59;5057243;28;20100;-67
2022/12/08 09:29:30;;;;;;;17.75;8.63;;;;;;;4.05;87.80;100141.09;5049883;28;20052;-68
2022/12/08 09:31:57;;;;;;;18.35;9.00;;;;;;;4.17;87.62;100145.88;5050128;28;20505;-67
2022/12/08 09:34:23;;;;;;;23.95;8.50;;;;;;;4.21;86.89;100143.09;5041464;28;20464;-67
2022/12/08 09:36:50;;;;;;;15.23;8.38;;;;;;;4.25;87.83;100143.84;5050620;28;20099;-67
2022/12/08 09:39:17;;;;;;;15.70;6.90;;;;;;;4.14;88.54;100143.38;5050273;28;20049;-67
2022/12/08 09:41:48;;;;;;;17.75;8.23;;;;;;;4.16;88.82;100149.34;5024001;28;20040;-66
2022/12/08 09:44:45;;;;;;;16.13;7.32;;;;;;;4.57;87.33;100143.53;5049751;28;20070;-66
2022/12/08 09:47:18;;;;;;;15.50;7.57;;;;;;;4.58;87.28;100137.41;5050390;28;20651;-68
2022/12/08 09:49:50;;;;;;;21.30;8.23;;;;;;;4.97;85.39;100132.50;5049737;28;20547;-68
2022/12/08 09:52:22;;;;;;;17.10;7.45;;;;;;;4.90;85.10;100134.50;5050237;28;20047;-67
2022/12/08 09:54:50;;;;;;;;;;;;;;;4.64;87.55;100132.03;5042681;28;20480;-68
2022/12/08 09:57:20;;;;;;;19.70;8.25;;;;;;;4.35;89.20;100127.91;5040193;28;19924;-68
2022/12/08 09:59:51;;;;;;;18.50;8.20;;;;;;;4.55;88.98;100140.13;5049187;28;20075;-68
2022/12/08 10:02:22;;;;;;;23.42;8.95;;;;;;;4.65;89.06;100127.69;5057181;28;20521;-67
2022/12/08 10:04:48;;;;;;;16.42;7.15;;;;;;;4.76;87.80;100125.53;5047273;28;20489;-67
2022/12/08 10:07:20;;;;;;;19.42;8.70;;;;;;;4.90;88.93;100116.31;5049738;28;20063;-67
2022/12/08 10:09:56;;;;;;;15.27;7.13;;;;;;;5.16;86.94;100117.91;5047589;28;20041;-67
2022/12/08 10:12:30;;;;;;;15.77;6.63;;;;;;;5.22;86.08;100109.00;5050848;28;20037;-67
2022/12/08 10:15:06;;;;;;;15.23;6.45;;;;;;;5.21;85.95;100113.34;5049588;28;20040;-67
2022/12/08 10:17:36;;;;;;;15.77;7.32;;;;;;;5.21;85.91;100107.31;5050070;28;20048;-67
2022/12/08 10:20:12;;;;;;;15.13;6.15;;;;;;;5.58;84.21;100106.69;5049545;28;20052;-67
2022/12/08 10:22:38;;;;;;;10.50;5.63;;;;;;;5.53;83.97;100104.25;5039673;28;20048;-67
2022/12/08 10:25:15;;;;;;;17.50;6.05;;;;;;;5.46;84.71;100110.63;5049121;28;20049;-67
2022/12/08 10:27:41;;;;;;;15.18;5.85;;;;;;;5.54;83.84;100094.72;5039594;28;20052;-67
2022/12/08 10:30:11;;;;;;;12.18;5.57;;;;;;;5.39;84.67;100106.59;5049359;28;20068;-67
2022/12/08 10:32:39;;;;;;;11.20;5.15;;;;;;;5.61;84.29;100103.94;5049244;28;20040;-67
2022/12/08 10:35:08;;;;;;;14.57;6.57;;;;;;;5.56;83.68;100095.47;5039953;28;20052;-67
2022/12/08 10:37:35;;;;;;;13.10;6.35;;;;;;;5.45;83.93;100102.88;5048705;28;20415;-67
2022/12/08 10:40:10;;;;;;;14.85;6.25;;;;;;;5.64;83.14;100103.81;5048332;28;20052;-67
2022/12/08 10:42:39;;;;;;;13.35;6.53;;;;;;;5.74;83.12;100103.34;5038157;28;20048;-67
2022/12/08 10:45:21;;;;;;;14.23;5.45;;;;;;;5.73;83.34;100100.81;5061810;28;20051;-68
2022/12/08 10:47:57;;;;;;;11.60;6.03;;;;;;;6.14;82.25;100086.91;5040013;28;20052;-68
2022/12/08 10:50:30;;;;;;;18.75;7.38;;;;;;;5.99;81.83;100086.72;5048760;28;20495;-68
2022/12/08 10:52:58;;;;;;;15.23;6.18;;;;;;;6.05;82.16;100092.53;5039564;28;20071;-67
2022/12/08 10:55:28;;;;;;;12.70;5.90;;;;;;;5.91;82.58;100084.47;5049241;28;20057;-67
2022/12/08 10:57:55;;;;;;;15.68;6.47;;;;;;;6.19;81.72;100087.56;5049202;28;20043;-67
2022/12/08 11:00:26;;;;;;;12.60;5.93;;;;;;;6.23;81.74;100089.13;5038656;28;20053;-67
2022/12/08 11:02:58;;;;;;;16.27;6.97;;;;;;;6.57;80.13;100091.06;5049330;28;20086;-66
2022/12/08 11:05:29;;;;;;;17.00;7.10;;;;;;;6.54;80.49;100085.97;5049828;28;20044;-67
2022/12/08 11:07:56;;;;;;;13.73;6.28;;;;;;;6.48;80.29;100093.22;5046130;28;20051;-67
2022/12/08 11:10:33;;;;;;;13.38;6.25;;;;;;;6.58;80.34;100087.53;5048905;28;20490;-67
2022/12/08 11:13:02;;;;;;;14.02;6.72;;;;;;;6.69;79.20;100077.47;5020187;28;20048;-67
2022/12/08 11:15:35;;;;;;;13.35;5.85;;;;;;;6.57;80.26;100072.84;5020726;28;20172;-68
2022/12/08 11:18:08;;;;;;;13.52;5.75;;;;;;;6.68;79.18;100077.53;5051893;28;20052;-67
2022/12/08 11:20:39;;;;;;;11.18;5.07;;;;;;;6.54;79.12;100070.34;5028817;28;20678;-67
2022/12/08 11:23:19;;;;;;;12.00;5.05;;;;;;;6.35;80.47;100079.94;5024812;28;20048;-67
2022/12/08 11:25:48;;;;;;;12.25;4.60;;;;;;;6.34;79.68;100081.69;5040596;28;20048;-67
2022/12/08 11:28:15;;;;;;;9.52;4.18;;;;;;;6.49;79.63;100072.34;5048740;28;20056;-67
2022/12/08 11:30:46;;;;;;;12.63;5.68;;;;;;;6.46;79.99;100077.69;5038015;28;20048;-67
2022/12/08 11:33:18;;;;;;;11.48;5.60;;;;;;;6.54;79.88;100080.75;5009839;28;20046;-68
2022/12/08 11:35:47;;;;;;;12.27;5.40;;;;;;;6.70;79.30;100076.56;5017163;28;20033;-67
2022/12/08 11:38:20;;;;;;;11.27;5.28;;;;;;;6.69;79.50;100063.59;5018414;28;20057;-67
2022/12/08 11:40:50;;;;;;;11.88;5.20;;;;;;;6.54;79.15;100075.56;5028017;28;20119;-67